Brodheadsville, PA (18322)

3:34 AM EDT on September 02, 2014 (GMT -0400)
Max - Pocono | Change Station
CLOSE
Current Station
Personal Weather Station
Location: Effort, PA
Elevation: 1089 ft
Nearby Weather Stations

Elev 1089 ft 40.95 °N, 75.42 °W | Updated 13 seconds ago

Clear
Clear
68.7 °F
Feels Like 68.7 °F
N
0.0
Wind Variable Wind from SSE
Gusts 0.0 mph

Today
High -- | Low -- °F
--% Chance of Precip.
Yesterday
High -- | Low -- °F
Precip. -- in
6:29 AM 7:32 PM
Waxing Crescent, 49% visible
Pressure 29.96 in
Visibility 7.0 miles
Clouds Clear
Dew Point 68 °F
Humidity 97%
Rainfall 0.00 in
Snow Depth Not available.
UV 0.0 out of 12
Pollen 5.60 out of 12
Air Quality Not available.
Flu Activity Not available.
METAR KMPO 020653Z AUTO 27004KT 7SM CLR 20/19 A2999 RMK AO2 SLP144 T02000189 TSNO

More Conditions Fewer Conditions

Pressure 29.96 in
Visibility 7.0 miles
Clouds Clear
Dew Point 68 °F
Humidity 97%
Rainfall 0.00 in
Snow Depth Not available.
UV 0.0 out of 12
Pollen 5.60 out of 12
Air Quality Not available.
Flu Activity Not available.
METAR KMPO 020653Z AUTO 27004KT 7SM CLR 20/19 A2999 RMK AO2 SLP144 T02000189 TSNO

More Conditions Fewer Conditions

10-Day Weather Forecast

Almanac

Astronomy

Sep. 02, 2014 Rise Set
Actual Time 6:29 AM EDT 7:32 PM EDT
Civil Twilight 6:00 AM EDT 8:00 PM EDT
Nautical Twilight 5:27 AM EDT 8:33 PM EDT
Astronomical Twilight 4:52 AM EDT 9:08 PM EDT
Moon 2:14 PM EDT No Moon Set
Length of Visible Light 13h 59m
Length of Day
13h 03m
Tomorrow will be 2m 38s shorter.
Waxing Crescent, 49% of the Moon is Illuminated
Today
Waxing Crescent
Sep 2
First Quarter
Sep 8
Full
Sep 15
Last Quarter
Sep 24
New

Today's Extremes

State Highs State Lows

Community

WunderPhotos

Upload Photos

1,749,589 photos uploaded!

WunderBlogs® & News

Nearby

Snow Depth

Station Depth Elevation
No new snow has been reported.

Earthquake Activity

City Distance Mag. Time & Date
No recent earthquake activity has been reported nearby.
Minimum magnitude displayed is 2.5.

Coastal Water Temperatures

Place Temperature
No Stations Reporting

Nearby Weather Stations